sensor_id;sensor_type;location;lat;lon;timestamp;pressure;altitude;pressure_sealevel;temperature;humidity
43480;BME280;29067;35.492;-97.520;2023-08-21T00:00:32;97374.70;;;36.50;25.78
43480;BME280;29067;35.492;-97.520;2023-08-21T00:03:00;97375.57;;;35.68;26.16
43480;BME280;29067;35.492;-97.520;2023-08-21T00:05:29;97377.67;;;35.40;26.46
43480;BME280;29067;35.492;-97.520;2023-08-21T00:07:57;97379.23;;;36.36;25.83
43480;BME280;29067;35.492;-97.520;2023-08-21T00:10:25;97379.81;;;35.50;26.37
43480;BME280;29067;35.492;-97.520;2023-08-21T00:12:53;97379.25;;;37.76;25.72
43480;BME280;29067;35.492;-97.520;2023-08-21T00:15:22;97383.02;;;36.97;26.15
43480;BME280;29067;35.492;-97.520;2023-08-21T00:17:50;97381.34;;;35.42;26.21
43480;BME280;29067;35.492;-97.520;2023-08-21T00:20:18;97379.29;;;35.51;26.18
43480;BME280;29067;35.492;-97.520;2023-08-21T00:22:46;97382.15;;;36.85;26.25
43480;BME280;29067;35.492;-97.520;2023-08-21T00:25:15;97377.45;;;35.85;26.30
43480;BME280;29067;35.492;-97.520;2023-08-21T00:27:43;97378.73;;;35.51;27.13
43480;BME280;29067;35.492;-97.520;2023-08-21T00:30:12;97382.47;;;35.02;27.90
43480;BME280;29067;35.492;-97.520;2023-08-21T00:32:40;97381.74;;;35.23;28.28
43480;BME280;29067;35.492;-97.520;2023-08-21T00:35:08;97383.33;;;34.92;28.62
43480;BME280;29067;35.492;-97.520;2023-08-21T00:37:36;97383.44;;;36.20;27.78
43480;BME280;29067;35.492;-97.520;2023-08-21T00:40:06;97387.42;;;33.48;29.85
43480;BME280;29067;35.492;-97.520;2023-08-21T00:42:34;97386.77;;;35.28;29.13
43480;BME280;29067;35.492;-97.520;2023-08-21T00:45:02;97387.00;;;34.55;29.86
43480;BME280;29067;35.492;-97.520;2023-08-21T00:47:30;97391.09;;;34.11;30.39
43480;BME280;29067;35.492;-97.520;2023-08-21T00:49:59;97391.50;;;33.99;31.11
43480;BME280;29067;35.492;-97.520;2023-08-21T00:52:27;97394.13;;;32.82;32.14
43480;BME280;29067;35.492;-97.520;2023-08-21T00:54:56;97389.77;;;35.11;30.58
43480;BME280;29067;35.492;-97.520;2023-08-21T00:57:25;97391.72;;;34.24;31.43
43480;BME280;29067;35.492;-97.520;2023-08-21T00:59:53;97395.60;;;32.50;33.07
43480;BME280;29067;35.492;-97.520;2023-08-21T01:02:21;97392.90;;;34.75;31.13
43480;BME280;29067;35.492;-97.520;2023-08-21T01:04:49;97394.52;;;34.39;32.04
43480;BME280;29067;35.492;-97.520;2023-08-21T01:07:18;97396.85;;;34.20;31.99
43480;BME280;29067;35.492;-97.520;2023-08-21T01:09:50;97399.58;;;34.74;32.15
43480;BME280;29067;35.492;-97.520;2023-08-21T01:12:29;97403.03;;;34.02;33.06
43480;BME280;29067;35.492;-97.520;2023-08-21T01:15:02;97408.93;;;33.23;34.67
43480;BME280;29067;35.492;-97.520;2023-08-21T01:17:33;97407.76;;;33.41;34.43
43480;BME280;29067;35.492;-97.520;2023-08-21T01:20:01;97412.25;;;32.70;36.00
43480;BME280;29067;35.492;-97.520;2023-08-21T01:22:36;97409.47;;;34.28;34.35
43480;BME280;29067;35.492;-97.520;2023-08-21T01:25:06;97414.49;;;34.77;34.06
43480;BME280;29067;35.492;-97.520;2023-08-21T01:27:34;97415.99;;;34.82;33.82
43480;BME280;29067;35.492;-97.520;2023-08-21T01:30:05;97417.46;;;34.84;33.47
43480;BME280;29067;35.492;-97.520;2023-08-21T01:32:40;97421.16;;;34.98;33.71
43480;BME280;29067;35.492;-97.520;2023-08-21T01:35:10;97430.77;;;32.24;36.57
43480;BME280;29067;35.492;-97.520;2023-08-21T01:37:38;97432.66;;;33.67;35.38
43480;BME280;29067;35.492;-97.520;2023-08-21T01:40:08;97430.45;;;33.16;35.53
43480;BME280;29067;35.492;-97.520;2023-08-21T01:42:36;97428.79;;;34.06;35.25
43480;BME280;29067;35.492;-97.520;2023-08-21T01:45:05;97429.84;;;34.09;34.82
43480;BME280;29067;35.492;-97.520;2023-08-21T01:47:34;97435.90;;;33.31;36.17
43480;BME280;29067;35.492;-97.520;2023-08-21T01:50:02;97434.78;;;34.34;35.32
43480;BME280;29067;35.492;-97.520;2023-08-21T01:52:31;97440.42;;;33.15;36.62
43480;BME280;29067;35.492;-97.520;2023-08-21T01:54:59;97444.44;;;33.22;37.37
43480;BME280;29067;35.492;-97.520;2023-08-21T01:57:27;97451.96;;;32.46;38.36
43480;BME280;29067;35.492;-97.520;2023-08-21T01:59:55;97451.66;;;33.55;37.00
43480;BME280;29067;35.492;-97.520;2023-08-21T02:02:23;97451.88;;;32.87;37.79
43480;BME280;29067;35.492;-97.520;2023-08-21T02:04:51;97454.52;;;32.83;37.90
43480;BME280;29067;35.492;-97.520;2023-08-21T02:07:19;97456.85;;;32.05;39.79
43480;BME280;29067;35.492;-97.520;2023-08-21T02:09:48;97460.60;;;33.40;38.78
43480;BME280;29067;35.492;-97.520;2023-08-21T02:12:16;97464.73;;;32.02;40.06
43480;BME280;29067;35.492;-97.520;2023-08-21T02:14:44;97462.50;;;32.86;38.70
43480;BME280;29067;35.492;-97.520;2023-08-21T02:17:12;97469.19;;;32.12;39.53
43480;BME280;29067;35.492;-97.520;2023-08-21T02:19:40;97470.33;;;32.25;40.00
43480;BME280;29067;35.492;-97.520;2023-08-21T02:22:09;97470.63;;;32.18;40.22
43480;BME280;29067;35.492;-97.520;2023-08-21T02:24:37;97473.43;;;32.74;39.27
43480;BME280;29067;35.492;-97.520;2023-08-21T02:27:05;97476.60;;;32.29;40.28
43480;BME280;29067;35.492;-97.520;2023-08-21T02:29:33;97479.92;;;33.06;39.44
43480;BME280;29067;35.492;-97.520;2023-08-21T02:32:02;97483.36;;;31.77;40.42
43480;BME280;29067;35.492;-97.520;2023-08-21T02:34:30;97485.26;;;33.96;38.72
43480;BME280;29067;35.492;-97.520;2023-08-21T02:36:58;97495.06;;;32.84;38.85
43480;BME280;29067;35.492;-97.520;2023-08-21T02:39:27;97499.95;;;32.86;39.69
43480;BME280;29067;35.492;-97.520;2023-08-21T02:41:56;97501.36;;;32.50;40.23
43480;BME280;29067;35.492;-97.520;2023-08-21T02:44:24;97504.94;;;32.64;39.65
43480;BME280;29067;35.492;-97.520;2023-08-21T02:46:52;97508.88;;;32.97;39.56
43480;BME280;29067;35.492;-97.520;2023-08-21T02:49:20;97510.73;;;33.26;38.81
43480;BME280;29067;35.492;-97.520;2023-08-21T02:51:49;97513.62;;;32.37;39.38
43480;BME280;29067;35.492;-97.520;2023-08-21T02:54:18;97510.15;;;31.33;40.83
43480;BME280;29067;35.492;-97.520;2023-08-21T02:56:46;97517.32;;;32.80;39.29
43480;BME280;29067;35.492;-97.520;2023-08-21T02:59:14;97517.65;;;32.31;39.97
43480;BME280;29067;35.492;-97.520;2023-08-21T03:01:42;97519.98;;;32.30;39.99
43480;BME280;29067;35.492;-97.520;2023-08-21T03:04:11;97522.64;;;33.19;38.85
43480;BME280;29067;35.492;-97.520;2023-08-21T03:06:39;97527.94;;;33.62;38.28
43480;BME280;29067;35.492;-97.520;2023-08-21T03:09:07;97525.65;;;33.59;38.19
43480;BME280;29067;35.492;-97.520;2023-08-21T03:11:35;97528.98;;;32.75;37.75
43480;BME280;29067;35.492;-97.520;2023-08-21T03:14:04;97528.83;;;33.95;36.88
43480;BME280;29067;35.492;-97.520;2023-08-21T03:16:32;97529.83;;;33.17;37.10
43480;BME280;29067;35.492;-97.520;2023-08-21T03:19:01;97531.03;;;33.42;36.94
43480;BME280;29067;35.492;-97.520;2023-08-21T03:21:29;97531.99;;;34.20;36.36
43480;BME280;29067;35.492;-97.520;2023-08-21T03:23:58;97527.94;;;35.17;35.50
43480;BME280;29067;35.492;-97.520;2023-08-21T03:26:26;97528.90;;;35.02;35.81
43480;BME280;29067;35.492;-97.520;2023-08-21T03:28:54;97529.87;;;34.38;35.13
43480;BME280;29067;35.492;-97.520;2023-08-21T03:31:22;97534.96;;;33.17;36.38
43480;BME280;29067;35.492;-97.520;2023-08-21T03:33:51;97528.36;;;34.31;35.67
43480;BME280;29067;35.492;-97.520;2023-08-21T03:36:19;97526.90;;;35.28;35.46
43480;BME280;29067;35.492;-97.520;2023-08-21T03:38:47;97529.29;;;34.92;35.08
43480;BME280;29067;35.492;-97.520;2023-08-21T03:41:26;97528.12;;;34.24;35.77
43480;BME280;29067;35.492;-97.520;2023-08-21T03:43:54;97530.89;;;34.98;35.44
43480;BME280;29067;35.492;-97.520;2023-08-21T03:46:22;97531.13;;;34.81;35.35
43480;BME280;29067;35.492;-97.520;2023-08-21T03:48:51;97532.93;;;35.45;35.23
43480;BME280;29067;35.492;-97.520;2023-08-21T03:51:18;97533.81;;;35.04;35.36
43480;BME280;29067;35.492;-97.520;2023-08-21T03:53:47;97535.03;;;34.61;35.73
43480;BME280;29067;35.492;-97.520;2023-08-21T03:56:16;97540.29;;;35.46;35.85
43480;BME280;29067;35.492;-97.520;2023-08-21T03:58:43;97546.94;;;34.48;36.98
43480;BME280;29067;35.492;-97.520;2023-08-21T04:01:11;97549.15;;;34.73;36.49
43480;BME280;29067;35.492;-97.520;2023-08-21T04:03:40;97551.54;;;35.04;36.65
43480;BME280;29067;35.492;-97.520;2023-08-21T04:06:08;97553.04;;;34.76;36.96
43480;BME280;29067;35.492;-97.520;2023-08-21T04:08:36;97550.84;;;34.48;37.20
43480;BME280;29067;35.492;-97.520;2023-08-21T04:11:05;97549.25;;;35.05;36.72
43480;BME280;29067;35.492;-97.520;2023-08-21T04:13:34;97549.50;;;35.10;36.95
43480;BME280;29067;35.492;-97.520;2023-08-21T04:16:02;97547.97;;;35.21;36.68
43480;BME280;29067;35.492;-97.520;2023-08-21T04:18:30;97545.61;;;35.64;36.30
43480;BME280;29067;35.492;-97.520;2023-08-21T04:20:58;97544.18;;;34.79;36.88
43480;BME280;29067;35.492;-97.520;2023-08-21T04:23:27;97544.26;;;34.77;36.70
43480;BME280;29067;35.492;-97.520;2023-08-21T04:26:01;97543.73;;;35.17;36.91
43480;BME280;29067;35.492;-97.520;2023-08-21T04:28:29;97549.18;;;34.66;37.20
43480;BME280;29067;35.492;-97.520;2023-08-21T04:30:58;97550.47;;;34.71;37.43
43480;BME280;29067;35.492;-97.520;2023-08-21T04:33:27;97548.63;;;35.43;37.58
43480;BME280;29067;35.492;-97.520;2023-08-21T04:35:55;97549.36;;;34.96;36.99
43480;BME280;29067;35.492;-97.520;2023-08-21T04:38:23;97550.17;;;33.76;38.67
43480;BME280;29067;35.492;-97.520;2023-08-21T04:40:51;97547.29;;;33.56;38.33
43480;BME280;29067;35.492;-97.520;2023-08-21T04:43:19;97547.54;;;34.27;38.15
43480;BME280;29067;35.492;-97.520;2023-08-21T04:45:48;97546.93;;;34.66;37.92
43480;BME280;29067;35.492;-97.520;2023-08-21T04:48:17;97547.87;;;34.34;38.70
43480;BME280;29067;35.492;-97.520;2023-08-21T04:50:46;97548.64;;;34.32;37.78
43480;BME280;29067;35.492;-97.520;2023-08-21T04:53:14;97550.57;;;35.33;37.71
43480;BME280;29067;35.492;-97.520;2023-08-21T04:55:43;97549.65;;;34.18;38.67
43480;BME280;29067;35.492;-97.520;2023-08-21T04:58:11;97550.33;;;33.31;39.44
43480;BME280;29067;35.492;-97.520;2023-08-21T05:00:39;97552.56;;;34.12;38.65
43480;BME280;29067;35.492;-97.520;2023-08-21T05:03:07;97557.72;;;33.27;39.04
43480;BME280;29067;35.492;-97.520;2023-08-21T05:05:36;97556.02;;;33.12;39.90
43480;BME280;29067;35.492;-97.520;2023-08-21T05:08:05;97557.00;;;33.83;39.18
43480;BME280;29067;35.492;-97.520;2023-08-21T05:10:33;97557.48;;;32.46;39.92
43480;BME280;29067;35.492;-97.520;2023-08-21T05:13:01;97558.57;;;33.68;39.46
43480;BME280;29067;35.492;-97.520;2023-08-21T05:15:31;97559.94;;;32.25;40.93
43480;BME280;29067;35.492;-97.520;2023-08-21T05:17:59;97558.29;;;32.03;41.38
43480;BME280;29067;35.492;-97.520;2023-08-21T05:20:27;97557.23;;;31.91;41.53
43480;BME280;29067;35.492;-97.520;2023-08-21T05:22:56;97562.19;;;31.81;42.15
43480;BME280;29067;35.492;-97.520;2023-08-21T05:25:24;97561.26;;;33.17;40.22
43480;BME280;29067;35.492;-97.520;2023-08-21T05:27:52;97564.28;;;32.66;40.80
43480;BME280;29067;35.492;-97.520;2023-08-21T05:30:21;97563.01;;;32.72;40.75
43480;BME280;29067;35.492;-97.520;2023-08-21T05:32:49;97563.18;;;33.22;40.38
43480;BME280;29067;35.492;-97.520;2023-08-21T05:35:17;97565.58;;;32.83;40.73
43480;BME280;29067;35.492;-97.520;2023-08-21T05:37:46;97565.49;;;31.93;41.72
43480;BME280;29067;35.492;-97.520;2023-08-21T05:40:14;97568.49;;;32.12;41.85
43480;BME280;29067;35.492;-97.520;2023-08-21T05:42:42;97568.17;;;32.11;41.29
43480;BME280;29067;35.492;-97.520;2023-08-21T05:45:10;97567.61;;;33.25;40.57
43480;BME280;29067;35.492;-97.520;2023-08-21T05:47:38;97569.39;;;33.66;39.85
43480;BME280;29067;35.492;-97.520;2023-08-21T05:50:07;97572.33;;;33.49;40.07
43480;BME280;29067;35.492;-97.520;2023-08-21T05:52:35;97572.93;;;33.67;39.67
43480;BME280;29067;35.492;-97.520;2023-08-21T05:55:04;97571.99;;;32.13;41.02
43480;BME280;29067;35.492;-97.520;2023-08-21T05:57:32;97572.51;;;32.95;40.11
43480;BME280;29067;35.492;-97.520;2023-08-21T06:00:00;97574.73;;;32.77;39.89
43480;BME280;29067;35.492;-97.520;2023-08-21T06:02:33;97576.25;;;33.65;39.02
43480;BME280;29067;35.492;-97.520;2023-08-21T06:05:02;97577.18;;;33.96;39.13
43480;BME280;29067;35.492;-97.520;2023-08-21T06:07:30;97578.50;;;34.10;38.62
43480;BME280;29067;35.492;-97.520;2023-08-21T06:10:00;97579.42;;;34.12;38.87
43480;BME280;29067;35.492;-97.520;2023-08-21T06:12:28;97581.93;;;33.91;38.47
43480;BME280;29067;35.492;-97.520;2023-08-21T06:14:56;97582.77;;;33.72;38.35
43480;BME280;29067;35.492;-97.520;2023-08-21T06:17:26;97586.42;;;34.09;38.38
43480;BME280;29067;35.492;-97.520;2023-08-21T06:19:55;97586.42;;;33.69;38.18
43480;BME280;29067;35.492;-97.520;2023-08-21T06:22:23;97584.43;;;33.17;38.69
43480;BME280;29067;35.492;-97.520;2023-08-21T06:24:51;97581.20;;;32.68;39.64
43480;BME280;29067;35.492;-97.520;2023-08-21T06:27:19;97579.21;;;33.43;39.33
43480;BME280;29067;35.492;-97.520;2023-08-21T06:29:48;97578.31;;;32.83;39.86
43480;BME280;29067;35.492;-97.520;2023-08-21T06:32:16;97578.44;;;31.95;40.93
43480;BME280;29067;35.492;-97.520;2023-08-21T06:34:44;97578.16;;;32.90;39.83
43480;BME280;29067;35.492;-97.520;2023-08-21T06:37:12;97577.07;;;32.89;39.90
43480;BME280;29067;35.492;-97.520;2023-08-21T06:39:41;97579.17;;;33.49;39.06
43480;BME280;29067;35.492;-97.520;2023-08-21T06:42:09;97576.52;;;31.95;40.91
43480;BME280;29067;35.492;-97.520;2023-08-21T06:44:37;97573.00;;;32.93;39.92
43480;BME280;29067;35.492;-97.520;2023-08-21T06:47:05;97573.70;;;33.46;39.68
43480;BME280;29067;35.492;-97.520;2023-08-21T06:49:34;97570.83;;;33.77;39.30
43480;BME280;29067;35.492;-97.520;2023-08-21T06:52:02;97569.06;;;33.23;39.77
43480;BME280;29067;35.492;-97.520;2023-08-21T06:54:30;97568.62;;;32.32;40.75
43480;BME280;29067;35.492;-97.520;2023-08-21T06:56:59;97566.44;;;33.15;39.76
43480;BME280;29067;35.492;-97.520;2023-08-21T06:59:27;97565.14;;;32.41;40.31
43480;BME280;29067;35.492;-97.520;2023-08-21T07:01:56;97565.27;;;33.29;39.91
43480;BME280;29067;35.492;-97.520;2023-08-21T07:04:24;97566.48;;;32.63;41.18
43480;BME280;29067;35.492;-97.520;2023-08-21T07:06:52;97566.76;;;32.09;41.13
43480;BME280;29067;35.492;-97.520;2023-08-21T07:09:20;97565.69;;;32.10;40.69
43480;BME280;29067;35.492;-97.520;2023-08-21T07:11:48;97562.98;;;32.25;41.04
43480;BME280;29067;35.492;-97.520;2023-08-21T07:14:17;97563.27;;;32.16;41.27
43480;BME280;29067;35.492;-97.520;2023-08-21T07:16:45;97567.80;;;32.57;40.66
43480;BME280;29067;35.492;-97.520;2023-08-21T07:19:13;97565.00;;;32.05;40.69
43480;BME280;29067;35.492;-97.520;2023-08-21T07:21:42;97564.66;;;32.47;41.06
43480;BME280;29067;35.492;-97.520;2023-08-21T07:24:10;97566.17;;;31.94;40.61
43480;BME280;29067;35.492;-97.520;2023-08-21T07:26:38;97566.34;;;32.37;40.30
43480;BME280;29067;35.492;-97.520;2023-08-21T07:29:06;97564.87;;;32.71;40.32
43480;BME280;29067;35.492;-97.520;2023-08-21T07:31:34;97563.12;;;32.65;40.38
43480;BME280;29067;35.492;-97.520;2023-08-21T07:34:03;97564.36;;;32.74;40.12
43480;BME280;29067;35.492;-97.520;2023-08-21T07:36:32;97560.10;;;33.04;39.46
43480;BME280;29067;35.492;-97.520;2023-08-21T07:39:00;97562.02;;;32.79;40.23
43480;BME280;29067;35.492;-97.520;2023-08-21T07:41:28;97562.85;;;32.15;40.80
43480;BME280;29067;35.492;-97.520;2023-08-21T07:43:57;97564.80;;;31.92;41.52
43480;BME280;29067;35.492;-97.520;2023-08-21T07:46:25;97562.03;;;32.40;40.89
43480;BME280;29067;35.492;-97.520;2023-08-21T07:48:53;97561.29;;;32.29;41.06
43480;BME280;29067;35.492;-97.520;2023-08-21T07:51:22;97556.83;;;32.28;40.53
43480;BME280;29067;35.492;-97.520;2023-08-21T07:53:50;97557.87;;;32.31;41.05
43480;BME280;29067;35.492;-97.520;2023-08-21T07:56:18;97560.16;;;31.76;40.88
43480;BME280;29067;35.492;-97.520;2023-08-21T07:58:46;97562.79;;;31.57;41.08
43480;BME280;29067;35.492;-97.520;2023-08-21T08:01:16;97562.92;;;32.39;40.74
43480;BME280;29067;35.492;-97.520;2023-08-21T08:03:44;97560.68;;;32.20;40.18
43480;BME280;29067;35.492;-97.520;2023-08-21T08:06:12;97567.66;;;30.51;41.75
43480;BME280;29067;35.492;-97.520;2023-08-21T08:08:40;97566.77;;;29.80;43.46
43480;BME280;29067;35.492;-97.520;2023-08-21T08:11:08;97566.21;;;31.05;42.70
43480;BME280;29067;35.492;-97.520;2023-08-21T08:13:37;97565.55;;;30.72;43.03
43480;BME280;29067;35.492;-97.520;2023-08-21T08:16:05;97569.38;;;30.63;42.46
43480;BME280;29067;35.492;-97.520;2023-08-21T08:18:33;97568.42;;;30.36;42.61
43480;BME280;29067;35.492;-97.520;2023-08-21T08:21:01;97569.64;;;31.83;41.49
43480;BME280;29067;35.492;-97.520;2023-08-21T08:23:30;97565.06;;;32.02;40.22
43480;BME280;29067;35.492;-97.520;2023-08-21T08:25:58;97562.27;;;32.13;40.19
43480;BME280;29067;35.492;-97.520;2023-08-21T08:28:26;97557.49;;;31.81;40.26
43480;BME280;29067;35.492;-97.520;2023-08-21T08:31:00;97557.22;;;32.53;39.66
43480;BME280;29067;35.492;-97.520;2023-08-21T08:33:28;97559.31;;;32.14;39.94
43480;BME280;29067;35.492;-97.520;2023-08-21T08:35:57;97558.52;;;31.65;40.28
43480;BME280;29067;35.492;-97.520;2023-08-21T08:38:25;97560.06;;;31.72;40.03
43480;BME280;29067;35.492;-97.520;2023-08-21T08:40:54;97558.88;;;31.13;40.65
43480;BME280;29067;35.492;-97.520;2023-08-21T08:43:25;97558.50;;;32.27;39.76
43480;BME280;29067;35.492;-97.520;2023-08-21T08:45:57;97558.52;;;31.62;39.88
43480;BME280;29067;35.492;-97.520;2023-08-21T08:48:25;97554.20;;;31.64;40.15
43480;BME280;29067;35.492;-97.520;2023-08-21T08:50:54;97557.26;;;31.97;39.99
43480;BME280;29067;35.492;-97.520;2023-08-21T08:53:23;97559.88;;;30.96;40.94
43480;BME280;29067;35.492;-97.520;2023-08-21T08:55:51;97556.60;;;31.22;40.83
43480;BME280;29067;35.492;-97.520;2023-08-21T08:58:19;97555.38;;;32.52;39.26
43480;BME280;29067;35.492;-97.520;2023-08-21T09:00:48;97556.12;;;31.89;39.84
43480;BME280;29067;35.492;-97.520;2023-08-21T09:03:16;97555.12;;;32.62;39.51
43480;BME280;29067;35.492;-97.520;2023-08-21T09:05:45;97557.63;;;32.04;39.18
43480;BME280;29067;35.492;-97.520;2023-08-21T09:08:18;97558.67;;;31.70;40.42
43480;BME280;29067;35.492;-97.520;2023-08-21T09:10:47;97557.86;;;31.85;39.43
43480;BME280;29067;35.492;-97.520;2023-08-21T09:13:16;97559.83;;;31.91;40.01
43480;BME280;29067;35.492;-97.520;2023-08-21T09:15:47;97555.57;;;31.79;40.04
43480;BME280;29067;35.492;-97.520;2023-08-21T09:18:16;97556.02;;;31.88;39.47
43480;BME280;29067;35.492;-97.520;2023-08-21T09:20:45;97554.82;;;32.05;39.22
43480;BME280;29067;35.492;-97.520;2023-08-21T09:23:15;97557.42;;;31.60;39.62
43480;BME280;29067;35.492;-97.520;2023-08-21T09:25:46;97558.70;;;32.28;39.76
43480;BME280;29067;35.492;-97.520;2023-08-21T09:28:14;97558.23;;;31.72;39.58
43480;BME280;29067;35.492;-97.520;2023-08-21T09:30:47;97558.10;;;32.75;38.79
43480;BME280;29067;35.492;-97.520;2023-08-21T09:33:22;97557.65;;;33.21;38.76
43480;BME280;29067;35.492;-97.520;2023-08-21T09:35:51;97557.32;;;32.98;37.97
43480;BME280;29067;35.492;-97.520;2023-08-21T09:38:20;97556.43;;;33.14;38.65
43480;BME280;29067;35.492;-97.520;2023-08-21T09:40:52;97557.60;;;33.51;37.93
43480;BME280;29067;35.492;-97.520;2023-08-21T09:43:21;97560.55;;;32.61;38.37
43480;BME280;29067;35.492;-97.520;2023-08-21T09:45:50;97560.65;;;33.14;37.98
43480;BME280;29067;35.492;-97.520;2023-08-21T09:48:19;97562.21;;;33.03;37.62
43480;BME280;29067;35.492;-97.520;2023-08-21T09:50:47;97560.80;;;32.54;38.69
43480;BME280;29067;35.492;-97.520;2023-08-21T09:53:16;97557.44;;;32.66;39.03
43480;BME280;29067;35.492;-97.520;2023-08-21T09:55:44;97559.67;;;32.73;38.43
43480;BME280;29067;35.492;-97.520;2023-08-21T09:58:14;97558.24;;;32.38;38.75
43480;BME280;29067;35.492;-97.520;2023-08-21T10:00:50;97559.69;;;32.07;38.91
43480;BME280;29067;35.492;-97.520;2023-08-21T10:03:21;97561.27;;;32.43;38.45
43480;BME280;29067;35.492;-97.520;2023-08-21T10:05:50;97562.18;;;31.78;39.41
43480;BME280;29067;35.492;-97.520;2023-08-21T10:08:23;97559.71;;;31.87;39.38
43480;BME280;29067;35.492;-97.520;2023-08-21T10:10:51;97563.95;;;32.01;38.81
43480;BME280;29067;35.492;-97.520;2023-08-21T10:13:20;97563.46;;;32.19;38.43
43480;BME280;29067;35.492;-97.520;2023-08-21T10:15:48;97561.19;;;32.06;38.20
43480;BME280;29067;35.492;-97.520;2023-08-21T10:18:19;97563.21;;;32.62;38.19
43480;BME280;29067;35.492;-97.520;2023-08-21T10:20:48;97561.48;;;32.44;37.93
43480;BME280;29067;35.492;-97.520;2023-08-21T10:23:32;97561.52;;;32.59;37.89
43480;BME280;29067;35.492;-97.520;2023-08-21T10:26:01;97561.60;;;32.74;37.49
43480;BME280;29067;35.492;-97.520;2023-08-21T10:29:05;97559.99;;;32.83;37.64
43480;BME280;29067;35.492;-97.520;2023-08-21T10:31:34;97564.77;;;32.40;38.10
43480;BME280;29067;35.492;-97.520;2023-08-21T10:34:03;97564.44;;;31.87;38.73
43480;BME280;29067;35.492;-97.520;2023-08-21T10:37:06;97570.29;;;32.17;37.97
43480;BME280;29067;35.492;-97.520;2023-08-21T10:39:35;97572.58;;;33.05;37.92
43480;BME280;29067;35.492;-97.520;2023-08-21T10:42:04;97574.20;;;32.11;37.83
43480;BME280;29067;35.492;-97.520;2023-08-21T10:44:38;97573.74;;;32.01;38.35
43480;BME280;29067;35.492;-97.520;2023-08-21T10:47:15;97574.21;;;32.03;38.01
43480;BME280;29067;35.492;-97.520;2023-08-21T10:49:45;97574.13;;;31.67;38.53
43480;BME280;29067;35.492;-97.520;2023-08-21T10:52:22;97569.40;;;32.52;38.18
43480;BME280;29067;35.492;-97.520;2023-08-21T10:54:52;97568.39;;;32.47;38.23
43480;BME280;29067;35.492;-97.520;2023-08-21T10:57:21;97568.88;;;31.88;38.41
43480;BME280;29067;35.492;-97.520;2023-08-21T10:59:52;97570.24;;;31.92;39.02
43480;BME280;29067;35.492;-97.520;2023-08-21T11:03:00;97573.20;;;32.87;38.18
43480;BME280;29067;35.492;-97.520;2023-08-21T11:05:29;97574.84;;;32.48;38.85
43480;BME280;29067;35.492;-97.520;2023-08-21T11:07:58;97577.39;;;32.22;39.13
43480;BME280;29067;35.492;-97.520;2023-08-21T11:10:30;97578.59;;;32.51;38.86
43480;BME280;29067;35.492;-97.520;2023-08-21T11:12:59;97581.36;;;32.20;38.92
43480;BME280;29067;35.492;-97.520;2023-08-21T11:15:32;97584.68;;;32.51;39.14
43480;BME280;29067;35.492;-97.520;2023-08-21T11:18:06;97587.16;;;32.57;38.65
43480;BME280;29067;35.492;-97.520;2023-08-21T11:20:40;97589.76;;;31.93;38.94
43480;BME280;29067;35.492;-97.520;2023-08-21T11:23:08;97589.36;;;32.51;38.75
43480;BME280;29067;35.492;-97.520;2023-08-21T11:25:40;97592.42;;;31.80;39.24
43480;BME280;29067;35.492;-97.520;2023-08-21T11:28:08;97594.61;;;32.19;39.54
43480;BME280;29067;35.492;-97.520;2023-08-21T11:30:49;97596.85;;;32.15;39.80
43480;BME280;29067;35.492;-97.520;2023-08-21T11:33:17;97599.33;;;31.76;39.86
43480;BME280;29067;35.492;-97.520;2023-08-21T11:35:45;97603.24;;;32.54;39.47
43480;BME280;29067;35.492;-97.520;2023-08-21T11:38:17;97610.97;;;30.31;42.00
43480;BME280;29067;35.492;-97.520;2023-08-21T11:40:52;97610.31;;;32.01;40.76
43480;BME280;29067;35.492;-97.520;2023-08-21T11:43:20;97612.17;;;32.15;40.96
43480;BME280;29067;35.492;-97.520;2023-08-21T11:45:48;97614.50;;;32.01;41.28
43480;BME280;29067;35.492;-97.520;2023-08-21T11:48:20;97613.22;;;31.85;40.93
43480;BME280;29067;35.492;-97.520;2023-08-21T11:50:49;97619.00;;;31.22;42.09
43480;BME280;29067;35.492;-97.520;2023-08-21T11:53:34;97618.80;;;31.73;41.81
43480;BME280;29067;35.492;-97.520;2023-08-21T11:56:03;97615.92;;;31.55;41.08
43480;BME280;29067;35.492;-97.520;2023-08-21T11:58:39;97616.00;;;31.61;41.66
43480;BME280;29067;35.492;-97.520;2023-08-21T12:01:07;97617.72;;;31.74;41.47
43480;BME280;29067;35.492;-97.520;2023-08-21T12:03:39;97616.80;;;31.68;41.49
43480;BME280;29067;35.492;-97.520;2023-08-21T12:06:08;97619.44;;;31.79;41.31
43480;BME280;29067;35.492;-97.520;2023-08-21T12:08:37;97618.05;;;31.76;41.31
43480;BME280;29067;35.492;-97.520;2023-08-21T12:11:05;97619.26;;;31.07;41.71
43480;BME280;29067;35.492;-97.520;2023-08-21T12:13:34;97621.23;;;31.59;41.59
43480;BME280;29067;35.492;-97.520;2023-08-21T12:16:02;97624.72;;;31.68;41.75
43480;BME280;29067;35.492;-97.520;2023-08-21T12:18:30;97632.68;;;31.82;42.26
43480;BME280;29067;35.492;-97.520;2023-08-21T12:20:59;97636.96;;;30.59;42.86
43480;BME280;29067;35.492;-97.520;2023-08-21T12:23:27;97639.64;;;31.47;42.41
43480;BME280;29067;35.492;-97.520;2023-08-21T12:25:55;97641.81;;;31.51;42.51
43480;BME280;29067;35.492;-97.520;2023-08-21T12:28:24;97642.19;;;31.45;43.51
43480;BME280;29067;35.492;-97.520;2023-08-21T12:30:52;97644.78;;;31.38;42.99
43480;BME280;29067;35.492;-97.520;2023-08-21T12:33:20;97647.85;;;31.38;43.65
43480;BME280;29067;35.492;-97.520;2023-08-21T12:35:49;97647.47;;;32.05;43.02
43480;BME280;29067;35.492;-97.520;2023-08-21T12:38:17;97649.39;;;31.90;42.78
43480;BME280;29067;35.492;-97.520;2023-08-21T12:40:45;97650.53;;;31.79;42.92
43480;BME280;29067;35.492;-97.520;2023-08-21T12:43:13;97651.71;;;31.78;42.91
43480;BME280;29067;35.492;-97.520;2023-08-21T12:45:42;97653.42;;;32.34;43.04
43480;BME280;29067;35.492;-97.520;2023-08-21T12:48:10;97652.53;;;31.84;43.27
43480;BME280;29067;35.492;-97.520;2023-08-21T12:50:38;97653.25;;;32.52;43.02